Time;durP1;ratioP1;P1;durP2;ratioP2;P2;SDS_P1;SDS_P2;PMS_P1;PMS_P2;Temp;Humidity;BMP_temperature;BMP_pressure;BME280_temperature;BME280_humidity;BME280_pressure;Samples;Min_cycle;Max_cycle;Signal;HPM_P1;HPM_P2
2022/09/23 00:02:11;;;;;;;11.23;9.45;;;11.00;99.90;;;;;;4958883;28;20512;-64
2022/09/23 00:04:38;;;;;;;12.75;9.35;;;11.00;99.90;;;;;;4958873;28;20065;-64
2022/09/23 00:07:05;;;;;;;11.25;8.95;;;11.00;99.90;;;;;;4959321;28;20117;-64
2022/09/23 00:09:32;;;;;;;9.70;8.70;;;11.00;99.90;;;;;;4976425;28;20047;-64
2022/09/23 00:11:59;;;;;;;11.07;9.00;;;11.00;99.90;;;;;;4975966;28;20098;-64
2022/09/23 00:14:27;;;;;;;13.77;9.20;;;11.00;99.90;;;;;;4976651;28;20109;-64
2022/09/23 00:16:53;;;;;;;10.50;8.73;;;11.00;99.90;;;;;;4975861;28;20050;-64
2022/09/23 00:19:22;;;;;;;15.43;9.10;;;10.90;99.90;;;;;;4955932;29;20051;-65
2022/09/23 00:21:48;;;;;;;13.88;9.32;;;10.90;99.90;;;;;;4956032;29;20423;-65
2022/09/23 00:24:15;;;;;;;13.05;9.65;;;10.90;99.90;;;;;;4956005;29;20051;-65
2022/09/23 00:26:42;;;;;;;12.18;8.90;;;10.90;99.90;;;;;;4971233;28;20051;-63
2022/09/23 00:29:09;;;;;;;13.25;9.15;;;10.90;99.90;;;;;;4959467;28;20450;-64
2022/09/23 00:31:36;;;;;;;13.43;10.13;;;10.90;99.90;;;;;;4975396;28;20450;-64
2022/09/23 00:34:03;;;;;;;12.25;8.63;;;10.80;99.90;;;;;;4976373;28;20137;-65
2022/09/23 00:36:32;;;;;;;11.13;8.95;;;10.80;99.90;;;;;;4958793;28;20063;-65
2022/09/23 00:38:59;;;;;;;13.30;9.65;;;10.80;99.90;;;;;;4958116;28;20086;-65
2022/09/23 00:41:26;;;;;;;14.80;9.95;;;10.80;99.90;;;;;;4975996;28;20468;-64
2022/09/23 00:43:55;;;;;;;12.55;10.00;;;10.80;99.90;;;;;;4976076;28;20051;-65
2022/09/23 00:46:26;;;;;;;12.45;9.70;;;10.80;99.90;;;;;;4958086;28;20545;-64
2022/09/23 00:48:57;;;;;;;14.45;9.68;;;10.80;99.90;;;;;;4958582;28;20051;-64
2022/09/23 00:51:30;;;;;;;13.25;9.70;;;10.70;99.90;;;;;;4975248;28;20129;-65
2022/09/23 00:53:58;;;;;;;12.77;9.52;;;10.70;99.90;;;;;;4958054;28;20062;-65
2022/09/23 00:56:25;;;;;;;13.40;9.65;;;10.80;99.90;;;;;;4975680;28;20051;-64
2022/09/23 00:58:53;;;;;;;19.17;9.32;;;10.70;99.90;;;;;;4975039;28;20105;-65
2022/09/23 01:01:20;;;;;;;10.70;9.15;;;10.80;99.90;;;;;;4958590;28;20055;-65
2022/09/23 01:03:48;;;;;;;14.57;9.63;;;10.70;99.90;;;;;;4958388;28;20142;-65
2022/09/23 01:06:15;;;;;;;13.15;9.43;;;10.80;99.90;;;;;;4957895;28;20058;-64
2022/09/23 01:08:45;;;;;;;12.10;9.90;;;10.70;99.90;;;;;;4954665;29;20443;-64
2022/09/23 01:11:42;;;;;;;10.25;9.18;;;10.70;99.90;;;;;;4939035;29;20062;-64
2022/09/23 01:14:23;;;;;;;11.05;9.43;;;10.80;99.90;;;;;;4942680;29;20503;-64
2022/09/23 01:16:57;;;;;;;16.67;9.88;;;10.70;99.90;;;;;;4956501;29;20137;-65
2022/09/23 01:19:46;;;;;;;11.90;10.18;;;10.80;99.90;;;;;;4956214;29;20099;-64
2022/09/23 01:22:19;;;;;;;10.95;9.57;;;10.80;99.90;;;;;;4938188;29;20059;-64
2022/09/23 01:24:56;;;;;;;11.40;9.70;;;10.70;99.90;;;;;;4972636;28;20477;-64
2022/09/23 01:27:39;;;;;;;10.50;9.48;;;10.70;99.90;;;;;;4957211;28;20502;-65
2022/09/23 01:30:16;;;;;;;12.73;9.57;;;10.70;99.90;;;;;;4954764;29;20388;-65
2022/09/23 01:33:03;;;;;;;12.63;9.57;;;10.70;99.90;;;;;;4938678;29;20059;-64
2022/09/23 01:35:52;;;;;;;11.50;9.88;;;10.70;99.90;;;;;;4955348;29;20055;-65
2022/09/23 01:38:33;;;;;;;12.40;10.02;;;10.70;99.90;;;;;;4955720;29;20055;-64
2022/09/23 01:41:07;;;;;;;13.63;9.55;;;10.70;99.90;;;;;;4955342;29;20565;-66
2022/09/23 01:43:40;;;;;;;12.52;10.10;;;10.70;99.90;;;;;;4939359;28;20059;-63
2022/09/23 01:46:13;;;;;;;14.65;10.20;;;10.70;99.90;;;;;;4957900;28;20055;-65
2022/09/23 01:48:49;;;;;;;11.23;9.23;;;10.70;99.90;;;;;;4974146;28;20049;-65
2022/09/23 01:51:22;;;;;;;11.68;9.60;;;10.70;99.90;;;;;;4957594;28;20146;-65
2022/09/23 01:53:54;;;;;;;11.95;8.95;;;10.70;99.90;;;;;;4974786;28;20465;-65
2022/09/23 01:56:25;;;;;;;10.95;9.52;;;10.70;99.90;;;;;;4955038;29;20054;-64
2022/09/23 01:58:58;;;;;;;10.95;9.27;;;10.70;99.90;;;;;;4954930;29;20455;-64
2022/09/23 02:01:30;;;;;;;13.90;9.73;;;10.70;99.90;;;;;;4938321;29;20102;-64
2022/09/23 02:04:03;;;;;;;11.70;9.52;;;10.70;99.90;;;;;;4936940;29;20055;-64
2022/09/23 02:06:34;;;;;;;13.68;9.32;;;10.70;99.90;;;;;;4955427;29;20081;-66
2022/09/23 02:09:04;;;;;;;13.23;9.82;;;10.70;99.90;;;;;;4957975;28;20678;-65
2022/09/23 02:11:35;;;;;;;11.93;9.57;;;10.70;99.90;;;;;;4973959;28;20098;-65
2022/09/23 02:14:07;;;;;;;13.07;9.80;;;10.70;99.90;;;;;;4957599;28;20446;-65
2022/09/23 02:16:38;;;;;;;11.57;9.30;;;10.70;99.90;;;;;;4956717;28;20133;-64
2022/09/23 02:19:11;;;;;;;9.52;8.48;;;10.70;99.90;;;;;;4957462;28;20059;-64
2022/09/23 02:21:43;;;;;;;12.27;9.05;;;10.60;99.90;;;;;;4957315;28;20486;-64
2022/09/23 02:24:14;;;;;;;11.80;8.93;;;10.60;99.90;;;;;;4973559;28;20051;-65
2022/09/23 02:26:49;;;;;;;11.60;9.40;;;10.60;99.90;;;;;;4957657;28;20051;-65
2022/09/23 02:29:20;;;;;;;15.52;9.18;;;10.60;99.90;;;;;;4956942;28;20047;-65
2022/09/23 02:31:56;;;;;;;12.02;9.55;;;10.50;99.90;;;;;;4973781;28;20413;-65
2022/09/23 02:34:34;;;;;;;12.77;8.57;;;10.50;99.90;;;;;;4974458;28;20047;-64
2022/09/23 02:37:09;;;;;;;11.98;8.80;;;10.40;99.90;;;;;;4974359;28;20051;-65
2022/09/23 02:39:45;;;;;;;11.00;9.10;;;10.40;99.90;;;;;;4972675;28;20039;-64
2022/09/23 02:42:15;;;;;;;13.57;9.65;;;10.40;99.90;;;;;;4956279;28;20050;-64
2022/09/23 02:44:42;;;;;;;10.30;8.45;;;10.30;99.90;;;;;;4972989;28;20561;-65
2022/09/23 02:47:09;;;;;;;13.93;9.50;;;10.30;99.90;;;;;;4974437;28;20137;-64
2022/09/23 02:49:37;;;;;;;12.82;9.07;;;10.20;99.90;;;;;;4953393;29;20051;-63
2022/09/23 02:52:06;;;;;;;14.23;9.05;;;10.20;99.90;;;;;;4953807;29;20063;-63
2022/09/23 02:54:34;;;;;;;10.88;9.40;;;10.10;99.90;;;;;;4954732;29;20134;-65
2022/09/23 02:57:04;;;;;;;11.85;8.85;;;10.10;99.90;;;;;;4954783;29;20086;-64
2022/09/23 02:59:32;;;;;;;13.88;9.73;;;10.10;99.90;;;;;;4936946;29;20051;-65
2022/09/23 03:02:16;;;;;;;12.32;9.75;;;10.00;99.90;;;;;;4954675;29;20126;-65
2022/09/23 03:04:57;;;;;;;11.50;9.57;;;10.00;99.90;;;;;;4967460;28;20054;-64
2022/09/23 03:07:35;;;;;;;16.75;10.43;;;10.00;99.90;;;;;;4955966;28;20093;-64
2022/09/23 03:10:10;;;;;;;13.80;10.25;;;9.90;99.90;;;;;;4973939;28;20454;-64
2022/09/23 03:12:42;;;;;;;10.95;9.60;;;9.90;99.90;;;;;;4972995;28;20495;-63
2022/09/23 03:15:20;;;;;;;11.65;9.10;;;9.90;99.90;;;;;;4958806;28;20061;-63
2022/09/23 03:17:55;;;;;;;12.50;9.75;;;9.80;99.90;;;;;;4960519;28;20059;-65
2022/09/23 03:20:29;;;;;;;12.52;10.38;;;9.80;99.90;;;;;;4976877;28;20047;-65
2022/09/23 03:23:01;;;;;;;13.73;10.73;;;9.80;99.90;;;;;;4977610;28;20418;-63
2022/09/23 03:25:32;;;;;;;13.10;10.20;;;9.80;99.90;;;;;;4977337;28;20061;-63
2022/09/23 03:28:01;;;;;;;14.20;10.82;;;9.70;99.90;;;;;;4976235;28;20054;-63
2022/09/23 03:30:29;;;;;;;11.65;9.95;;;9.70;99.90;;;;;;4977578;28;20130;-63
2022/09/23 03:32:59;;;;;;;13.00;10.38;;;9.70;99.90;;;;;;4960174;28;20059;-63
2022/09/23 03:35:31;;;;;;;11.25;9.95;;;9.70;99.90;;;;;;4976392;28;20051;-63
2022/09/23 03:38:06;;;;;;;10.52;9.35;;;9.70;99.90;;;;;;4960004;28;20089;-65
2022/09/23 03:40:35;;;;;;;13.95;10.23;;;9.60;99.90;;;;;;4959755;28;20058;-64
2022/09/23 03:43:03;;;;;;;13.23;10.80;;;9.60;99.90;;;;;;4977120;28;20450;-63
2022/09/23 03:45:33;;;;;;;12.35;9.95;;;9.60;99.90;;;;;;4960296;28;20058;-63
2022/09/23 03:48:01;;;;;;;12.77;10.55;;;9.60;99.90;;;;;;4976589;28;20121;-63
2022/09/23 03:50:29;;;;;;;11.95;9.63;;;9.60;99.90;;;;;;4956410;29;20047;-65
2022/09/23 03:52:57;;;;;;;14.05;10.35;;;9.60;99.90;;;;;;4957581;29;20051;-65
2022/09/23 03:55:24;;;;;;;14.18;10.45;;;9.50;99.90;;;;;;4939849;29;20054;-64
2022/09/23 03:57:50;;;;;;;13.18;10.52;;;9.50;99.90;;;;;;4957821;29;20051;-63
2022/09/23 04:00:17;;;;;;;13.77;10.80;;;9.50;99.90;;;;;;4956067;28;20054;-64
2022/09/23 04:02:45;;;;;;;13.98;11.07;;;9.50;99.90;;;;;;4958948;28;20054;-64
2022/09/23 04:05:13;;;;;;;14.07;9.85;;;9.50;99.90;;;;;;4976964;28;20057;-65
2022/09/23 04:07:41;;;;;;;17.42;10.98;;;9.40;99.90;;;;;;4959439;28;20054;-64
2022/09/23 04:10:09;;;;;;;14.68;10.68;;;9.40;99.90;;;;;;4975865;28;20051;-65
2022/09/23 04:12:36;;;;;;;16.42;11.25;;;9.40;99.90;;;;;;4976996;28;20050;-65
2022/09/23 04:15:04;;;;;;;12.40;11.02;;;9.40;99.90;;;;;;4976698;28;20050;-64
2022/09/23 04:17:31;;;;;;;13.93;11.05;;;9.40;99.90;;;;;;4975835;28;20054;-64
2022/09/23 04:19:58;;;;;;;15.82;10.20;;;9.40;99.90;;;;;;4959800;28;20125;-64
2022/09/23 04:22:25;;;;;;;16.15;11.30;;;9.30;99.90;;;;;;4975961;28;20054;-64
2022/09/23 04:24:53;;;;;;;12.77;11.38;;;9.40;99.90;;;;;;4956725;28;20055;-63
2022/09/23 04:27:20;;;;;;;14.95;11.60;;;9.30;99.90;;;;;;4957154;28;20145;-63
2022/09/23 04:29:47;;;;;;;13.73;10.88;;;9.30;99.90;;;;;;4953905;29;20522;-64
2022/09/23 04:32:14;;;;;;;15.10;11.70;;;9.30;99.90;;;;;;4938559;29;20059;-63
2022/09/23 04:34:40;;;;;;;15.05;11.80;;;9.30;99.90;;;;;;4956860;29;20055;-64
2022/09/23 04:37:07;;;;;;;12.13;10.82;;;9.30;99.90;;;;;;4956187;29;20062;-64
2022/09/23 04:39:34;;;;;;;15.57;11.25;;;9.20;99.90;;;;;;4939976;29;20484;-64
2022/09/23 04:42:03;;;;;;;13.80;11.23;;;9.20;99.90;;;;;;4956815;29;20062;-64
2022/09/23 04:44:30;;;;;;;12.55;11.15;;;9.30;99.90;;;;;;4968899;28;20137;-64
2022/09/23 04:46:57;;;;;;;13.63;11.85;;;9.20;99.90;;;;;;4958803;28;20051;-64
2022/09/23 04:49:24;;;;;;;13.20;11.38;;;9.30;99.90;;;;;;4976373;28;20395;-64
2022/09/23 04:51:51;;;;;;;13.65;11.63;;;9.30;99.90;;;;;;4975314;28;20046;-64
2022/09/23 04:54:18;;;;;;;16.58;11.30;;;9.30;99.90;;;;;;4955227;29;20496;-64
2022/09/23 04:56:44;;;;;;;15.57;12.07;;;9.30;99.90;;;;;;4956469;29;20055;-64
2022/09/23 04:59:13;;;;;;;13.70;11.30;;;9.30;99.90;;;;;;4963039;28;20094;-64
2022/09/23 05:01:40;;;;;;;13.18;10.75;;;9.30;99.90;;;;;;4975625;28;20672;-63
2022/09/23 05:04:09;;;;;;;12.88;11.48;;;9.20;99.90;;;;;;4976071;28;20084;-64
2022/09/23 05:06:37;;;;;;;13.90;11.93;;;9.20;99.90;;;;;;4957455;28;20165;-63
2022/09/23 05:09:06;;;;;;;14.60;11.45;;;9.20;99.90;;;;;;4958041;28;20061;-64
2022/09/23 05:11:33;;;;;;;13.65;12.25;;;9.20;99.90;;;;;;4975236;28;20490;-64
2022/09/23 05:14:00;;;;;;;18.55;12.65;;;9.20;99.90;;;;;;4957302;28;20058;-64
2022/09/23 05:16:28;;;;;;;12.50;11.05;;;9.20;99.90;;;;;;4974808;28;20059;-64
2022/09/23 05:18:56;;;;;;;16.10;12.57;;;9.20;99.90;;;;;;4958228;28;20055;-64
2022/09/23 05:21:24;;;;;;;15.60;12.10;;;9.30;99.90;;;;;;4974230;28;20410;-64
2022/09/23 05:23:53;;;;;;;18.30;12.35;;;9.20;99.90;;;;;;4957672;28;20486;-63
2022/09/23 05:26:21;;;;;;;16.55;12.52;;;9.20;99.90;;;;;;4974503;28;20126;-64
2022/09/23 05:28:48;;;;;;;15.18;11.75;;;9.20;99.90;;;;;;4954614;29;20043;-64
2022/09/23 05:31:17;;;;;;;17.88;12.43;;;9.10;99.90;;;;;;4938456;29;20106;-64
2022/09/23 05:33:48;;;;;;;17.42;12.93;;;9.10;99.90;;;;;;4954974;29;20059;-64
2022/09/23 05:36:16;;;;;;;14.00;12.50;;;9.10;99.90;;;;;;4938760;29;20080;-63
2022/09/23 05:38:43;;;;;;;13.82;12.35;;;9.10;99.90;;;;;;4938536;29;20066;-64
2022/09/23 05:41:12;;;;;;;15.80;13.07;;;9.20;99.90;;;;;;4937627;29;20479;-64
2022/09/23 05:43:39;;;;;;;14.15;12.75;;;9.20;99.90;;;;;;4960368;28;20055;-64
2022/09/23 05:46:07;;;;;;;16.33;12.55;;;9.20;99.90;;;;;;4957951;28;20059;-63
2022/09/23 05:48:36;;;;;;;14.48;12.82;;;9.30;99.90;;;;;;4953750;29;20491;-64
2022/09/23 05:51:07;;;;;;;14.02;12.52;;;9.30;99.90;;;;;;4938028;29;20102;-64
2022/09/23 05:53:35;;;;;;;18.40;12.70;;;9.40;99.90;;;;;;4955738;29;20094;-65
2022/09/23 05:56:02;;;;;;;15.25;13.18;;;9.40;99.90;;;;;;4937417;29;20055;-65
2022/09/23 05:58:29;;;;;;;14.60;12.50;;;9.50;99.90;;;;;;4938467;29;20110;-64
2022/09/23 06:00:56;;;;;;;15.95;13.48;;;9.60;99.90;;;;;;4938791;29;20059;-64
2022/09/23 06:03:25;;;;;;;18.60;13.60;;;9.60;99.90;;;;;;4954529;29;20058;-64
2022/09/23 06:05:53;;;;;;;14.38;12.55;;;9.70;99.90;;;;;;4955254;29;20550;-65
2022/09/23 06:08:21;;;;;;;16.02;12.20;;;9.70;99.90;;;;;;4940882;28;20050;-64
2022/09/23 06:10:49;;;;;;;14.27;12.05;;;9.70;99.90;;;;;;4957011;28;20101;-64
2022/09/23 06:13:16;;;;;;;17.08;12.57;;;9.80;99.90;;;;;;4974107;28;20101;-65
2022/09/23 06:15:43;;;;;;;14.65;13.15;;;9.80;99.90;;;;;;4956492;28;20054;-64
2022/09/23 06:18:11;;;;;;;18.42;12.65;;;9.90;99.90;;;;;;4957231;28;20059;-64
2022/09/23 06:20:38;;;;;;;16.33;12.23;;;10.00;99.90;;;;;;4956929;28;20062;-65
2022/09/23 06:23:07;;;;;;;16.38;12.25;;;10.00;99.90;;;;;;4973249;28;20066;-65
2022/09/23 06:25:37;;;;;;;15.23;11.75;;;10.10;99.90;;;;;;4974217;28;20050;-64
2022/09/23 06:28:05;;;;;;;15.40;12.27;;;10.10;99.90;;;;;;4953874;29;20418;-64
2022/09/23 06:30:33;;;;;;;16.38;12.48;;;10.20;99.90;;;;;;4954158;29;20055;-64
2022/09/23 06:33:00;;;;;;;15.50;12.38;;;10.20;99.90;;;;;;4937629;29;20090;-64
2022/09/23 06:35:28;;;;;;;15.75;12.45;;;10.40;99.90;;;;;;4938137;29;20495;-64
2022/09/23 06:37:55;;;;;;;16.23;12.32;;;10.40;99.90;;;;;;4953989;29;20119;-64
2022/09/23 06:40:22;;;;;;;18.65;12.73;;;10.50;99.90;;;;;;4943455;28;20046;-65
2022/09/23 06:42:57;;;;;;;14.40;11.93;;;10.60;99.90;;;;;;4956623;28;20109;-65
2022/09/23 06:45:24;;;;;;;14.25;12.57;;;10.60;99.90;;;;;;4955833;28;20513;-65
2022/09/23 06:47:54;;;;;;;16.27;12.23;;;10.80;99.90;;;;;;4973727;28;20062;-66
2022/09/23 06:50:22;;;;;;;10.65;8.73;;;10.90;99.90;;;;;;4962458;28;20055;-64
2022/09/23 06:52:54;;;;;;;16.13;12.00;;;11.00;99.90;;;;;;4960965;28;20047;-64
2022/09/23 06:55:23;;;;;;;11.98;10.68;;;11.20;99.90;;;;;;4973063;28;20094;-64
2022/09/23 06:57:51;;;;;;;13.25;11.20;;;11.50;99.90;;;;;;4974047;28;20046;-64
2022/09/23 07:00:19;;;;;;;14.95;11.32;;;11.80;99.90;;;;;;4955798;28;20050;-64
2022/09/23 07:02:46;;;;;;;14.13;11.73;;;12.00;99.90;;;;;;4954085;28;20058;-65
2022/09/23 07:05:15;;;;;;;12.02;9.10;;;12.10;99.90;;;;;;4976006;28;20097;-65
2022/09/23 07:07:42;;;;;;;14.60;10.70;;;12.40;99.90;;;;;;4955631;28;20055;-64
2022/09/23 07:10:10;;;;;;;15.45;11.68;;;12.40;99.90;;;;;;4972093;28;20394;-64
2022/09/23 07:12:37;;;;;;;16.48;8.85;;;12.30;99.90;;;;;;4951991;28;20059;-64
2022/09/23 07:15:07;;;;;;;12.43;10.68;;;12.30;99.90;;;;;;4953630;28;20110;-64
2022/09/23 07:17:34;;;;;;;14.13;11.68;;;12.40;99.90;;;;;;4976728;28;20446;-65
2022/09/23 07:20:02;;;;;;;12.70;11.35;;;12.30;99.90;;;;;;4973850;28;20051;-65
2022/09/23 07:22:29;;;;;;;13.20;11.80;;;12.20;99.90;;;;;;4969101;28;20051;-65
2022/09/23 07:24:56;;;;;;;13.20;11.07;;;12.20;99.90;;;;;;4958922;28;20050;-64
2022/09/23 07:27:23;;;;;;;15.10;11.20;;;12.20;99.90;;;;;;4970505;28;20047;-64
2022/09/23 07:29:50;;;;;;;14.13;11.15;;;12.30;99.90;;;;;;4960869;28;20051;-64
2022/09/23 07:32:20;;;;;;;12.23;10.75;;;12.50;99.90;;;;;;4972104;28;20078;-65
2022/09/23 07:34:47;;;;;;;14.10;11.75;;;12.70;99.90;;;;;;4954072;28;20491;-64
2022/09/23 07:37:14;;;;;;;14.00;11.43;;;12.90;99.90;;;;;;4970372;28;20047;-65
2022/09/23 07:39:42;;;;;;;16.00;10.90;;;13.10;99.90;;;;;;4970731;28;20067;-65
2022/09/23 07:42:10;;;;;;;14.77;10.98;;;13.30;99.90;;;;;;4970436;28;20545;-66
2022/09/23 07:44:37;;;;;;;10.75;9.13;;;13.30;99.90;;;;;;4976533;28;20054;-65
2022/09/23 07:47:05;;;;;;;15.73;11.43;;;13.40;99.90;;;;;;4970760;28;20062;-64
2022/09/23 07:49:35;;;;;;;11.73;9.00;;;13.50;99.90;;;;;;4976030;28;20057;-65
2022/09/23 07:52:03;;;;;;;12.55;10.95;;;13.90;99.90;;;;;;4970160;28;20058;-65
2022/09/23 07:54:30;;;;;;;16.40;11.48;;;14.00;99.90;;;;;;4969522;28;20047;-65
2022/09/23 07:56:58;;;;;;;14.52;10.40;;;14.00;99.90;;;;;;4974057;28;20442;-65
2022/09/23 07:59:25;;;;;;;14.40;11.10;;;14.10;99.90;;;;;;4971124;28;20049;-65
2022/09/23 08:01:52;;;;;;;12.13;10.90;;;14.10;99.90;;;;;;4950057;28;20054;-64
2022/09/23 08:04:22;;;;;;;13.73;10.50;;;14.20;99.90;;;;;;4951945;28;20090;-64
2022/09/23 08:06:52;;;;;;;12.25;10.55;;;14.30;99.90;;;;;;4968033;28;20094;-64
2022/09/23 08:09:22;;;;;;;14.25;10.13;;;14.40;99.90;;;;;;4955296;28;20047;-65
2022/09/23 08:11:50;;;;;;;11.82;9.95;;;14.50;99.90;;;;;;4949583;28;20090;-65
2022/09/23 08:14:18;;;;;;;12.65;11.13;;;14.50;99.90;;;;;;4967889;28;20585;-65
2022/09/23 08:16:46;;;;;;;11.32;9.60;;;14.50;99.90;;;;;;4966860;28;21004;-65
2022/09/23 08:19:14;;;;;;;13.23;10.27;;;14.40;99.90;;;;;;4956465;28;20054;-64
2022/09/23 08:21:41;;;;;;;11.93;10.13;;;14.50;99.90;;;;;;4968967;28;20046;-64
2022/09/23 08:24:13;;;;;;;13.85;11.10;;;14.60;99.90;;;;;;4965712;28;20051;-64
2022/09/23 08:26:40;;;;;;;18.25;9.82;;;14.60;99.90;;;;;;4950715;28;20502;-65
2022/09/23 08:29:09;;;;;;;11.63;9.82;;;14.60;99.90;;;;;;4950991;28;20109;-64
2022/09/23 08:31:36;;;;;;;13.10;10.23;;;14.60;99.90;;;;;;4952410;28;20051;-64
2022/09/23 08:34:03;;;;;;;12.52;10.48;;;14.70;99.90;;;;;;4967519;28;20541;-65
2022/09/23 08:36:31;;;;;;;11.93;10.13;;;14.90;99.90;;;;;;4964712;28;20058;-65
2022/09/23 08:38:58;;;;;;;17.05;10.00;;;14.90;99.90;;;;;;4950778;28;20047;-64
2022/09/23 08:41:35;;;;;;;11.38;10.05;;;15.10;99.90;;;;;;4967777;28;20449;-64
2022/09/23 08:44:04;;;;;;;13.43;10.00;;;15.40;99.90;;;;;;4950344;28;20133;-64
2022/09/23 08:46:36;;;;;;;12.82;9.75;;;15.90;99.90;;;;;;4967116;28;20147;-65
2022/09/23 08:49:06;;;;;;;11.68;9.30;;;16.30;99.90;;;;;;4969821;28;20050;-65
2022/09/23 08:51:39;;;;;;;11.82;9.43;;;16.60;99.90;;;;;;4946415;28;20482;-66
2022/09/23 08:54:08;;;;;;;13.20;9.85;;;16.50;99.90;;;;;;4967450;28;20053;-66
2022/09/23 08:56:38;;;;;;;14.50;9.55;;;16.40;99.90;;;;;;4952808;28;20566;-65
2022/09/23 08:59:10;;;;;;;10.63;8.98;;;16.40;99.90;;;;;;4950319;28;20059;-66
2022/09/23 09:01:43;;;;;;;10.20;9.13;;;16.30;99.90;;;;;;4949968;28;20054;-65
2022/09/23 09:04:20;;;;;;;12.73;9.48;;;16.20;99.90;;;;;;4967453;28;20097;-66
2022/09/23 09:06:51;;;;;;;12.23;9.63;;;16.30;99.90;;;;;;4950699;28;20105;-66
2022/09/23 09:09:26;;;;;;;10.50;9.00;;;16.30;99.90;;;;;;4968947;28;20216;-66
2022/09/23 09:12:02;;;;;;;9.65;8.32;;;16.30;99.90;;;;;;4947575;28;20051;-64
2022/09/23 09:14:36;;;;;;;11.45;9.32;;;16.30;99.90;;;;;;4955746;29;20047;-65
2022/09/23 09:17:07;;;;;;;12.60;8.75;;;16.10;99.90;;;;;;4969341;28;20057;-63
2022/09/23 09:19:54;;;;;;;9.95;8.80;;;16.10;99.90;;;;;;4957144;28;20161;-64
2022/09/23 09:22:27;;;;;;;11.93;9.40;;;16.10;99.90;;;;;;4975422;28;20494;-64
2022/09/23 09:25:01;;;;;;;11.32;8.30;;;16.20;99.90;;;;;;4975707;28;20054;-65
2022/09/23 09:27:30;;;;;;;11.63;8.23;;;16.30;99.90;;;;;;4974490;28;20050;-65
2022/09/23 09:30:00;;;;;;;9.55;8.55;;;16.20;99.90;;;;;;4957864;28;20054;-65
2022/09/23 09:32:36;;;;;;;14.70;9.10;;;16.30;99.90;;;;;;4957421;28;20141;-65
2022/09/23 09:35:12;;;;;;;12.57;9.35;;;16.30;99.90;;;;;;4975614;28;20105;-65
2022/09/23 09:37:45;;;;;;;10.93;9.45;;;16.40;99.90;;;;;;4957886;28;20074;-65
2022/09/23 09:40:13;;;;;;;12.68;8.95;;;16.50;99.90;;;;;;4974637;28;20438;-65
2022/09/23 09:42:45;;;;;;;11.52;7.72;;;16.50;99.90;;;;;;4974771;28;20051;-65
2022/09/23 09:45:19;;;;;;;11.82;7.82;;;16.50;99.90;;;;;;4975626;28;20047;-65
2022/09/23 09:47:51;;;;;;;11.40;8.07;;;16.40;99.90;;;;;;4974315;28;20467;-66
2022/09/23 09:50:42;;;;;;;10.10;8.15;;;16.50;99.90;;;;;;4975259;28;20117;-66
2022/09/23 09:53:21;;;;;;;10.82;7.88;;;16.50;99.90;;;;;;4974633;28;20055;-64
2022/09/23 09:55:59;;;;;;;9.32;7.40;;;16.50;99.90;;;;;;4957250;28;20105;-66
2022/09/23 09:58:32;;;;;;;12.55;8.18;;;16.50;99.90;;;;;;4957428;28;20050;-66
2022/09/23 10:01:00;;;;;;;13.15;9.02;;;16.40;99.90;;;;;;4956821;28;20043;-66
2022/09/23 10:03:42;;;;;;;13.23;8.20;;;16.40;99.90;;;;;;4957563;28;20161;-66
2022/09/23 10:06:19;;;;;;;13.95;8.27;;;16.30;99.90;;;;;;4974931;28;20089;-67
2022/09/23 10:09:12;;;;;;;9.70;7.43;;;16.30;99.90;;;;;;4953304;28;20110;-65
2022/09/23 10:11:40;;;;;;;10.40;7.72;;;16.30;99.90;;;;;;4954005;29;20062;-65
2022/09/23 10:14:13;;;;;;;11.85;7.88;;;16.30;99.90;;;;;;4955654;28;20102;-66
2022/09/23 10:16:41;;;;;;;14.20;8.80;;;16.30;99.90;;;;;;4954588;28;20487;-65
2022/09/23 10:19:24;;;;;;;13.35;8.32;;;16.20;99.90;;;;;;4954155;29;20058;-66
2022/09/23 10:21:58;;;;;;;13.30;8.85;;;16.30;99.90;;;;;;4954574;28;20447;-65
2022/09/23 10:24:29;;;;;;;10.10;7.97;;;16.40;99.90;;;;;;4954723;28;20051;-66
2022/09/23 10:26:58;;;;;;;;;;;16.50;99.90;;;;;;4955876;28;20055;-65
2022/09/23 10:29:31;;;;;;;11.02;8.68;;;16.60;99.90;;;;;;4953095;29;20344;-66
2022/09/23 10:32:19;;;;;;;12.43;7.80;;;16.60;99.90;;;;;;4955157;28;20459;-65
2022/09/23 10:34:49;;;;;;;12.43;7.95;;;16.60;99.90;;;;;;4954952;28;20055;-65
2022/09/23 10:37:24;;;;;;;11.02;7.75;;;16.70;99.90;;;;;;4954664;28;20058;-66
2022/09/23 10:48:39;;;;;;;11.25;7.35;;;16.70;99.90;;;;;;4954947;28;20055;-67
2022/09/23 10:51:14;;;;;;;10.05;7.70;;;16.70;99.90;;;;;;4953014;29;20090;-65
2022/09/23 10:53:53;;;;;;;10.32;7.22;;;16.90;99.90;;;;;;4953695;29;20077;-66
2022/09/23 10:56:29;;;;;;;9.82;7.07;;;16.90;99.90;;;;;;4953953;29;20055;-66
2022/09/23 10:59:30;;;;;;;11.55;8.43;;;17.00;99.90;;;;;;4952922;29;20055;-65
2022/09/23 11:02:11;;;;;;;8.95;7.40;;;17.00;99.90;;;;;;4933221;28;20102;-66
2022/09/23 11:05:14;;;;;;;13.43;7.28;;;17.10;99.90;;;;;;4952742;29;20066;-66
2022/09/23 11:07:48;;;;;;;10.77;7.82;;;17.20;99.90;;;;;;4962558;28;20098;-65
2022/09/23 11:10:51;;;;;;;11.70;8.00;;;17.30;99.90;;;;;;4973903;28;20050;-66
2022/09/23 11:13:34;;;;;;;10.25;8.48;;;17.40;99.90;;;;;;4973944;28;20142;-66
2022/09/23 11:16:10;;;;;;;14.30;9.07;;;17.50;99.90;;;;;;4956958;28;20090;-66
2022/09/23 11:19:02;;;;;;;12.73;8.48;;;17.50;99.90;;;;;;4955905;28;20054;-65
2022/09/23 11:21:55;;;;;;;12.85;8.52;;;17.50;99.90;;;;;;4956662;28;20051;-66
2022/09/23 11:24:40;;;;;;;12.05;8.38;;;17.60;99.90;;;;;;4972394;28;20502;-66
2022/09/23 11:27:16;;;;;;;12.35;7.93;;;17.60;99.90;;;;;;4955934;28;20055;-65
2022/09/23 11:29:58;;;;;;;13.65;8.50;;;17.60;99.90;;;;;;4974011;28;20106;-65
2022/09/23 11:32:38;;;;;;;11.18;8.50;;;17.60;99.90;;;;;;4955450;28;20102;-65
2022/09/23 11:35:16;;;;;;;10.43;8.00;;;17.40;99.90;;;;;;4973864;28;20051;-66
2022/09/23 11:37:46;;;;;;;9.93;7.80;;;17.40;99.90;;;;;;4977570;28;20050;-66
2022/09/23 11:40:17;;;;;;;11.00;9.27;;;17.40;99.90;;;;;;4959345;28;20121;-65
2022/09/23 11:42:52;;;;;;;11.15;7.63;;;17.30;99.90;;;;;;4977359;28;20446;-66
2022/09/23 11:45:23;;;;;;;13.23;8.32;;;17.30;99.90;;;;;;4977300;28;20110;-65
2022/09/23 11:47:54;;;;;;;10.77;7.68;;;17.30;99.90;;;;;;4976398;28;20138;-65
2022/09/23 11:50:29;;;;;;;17.05;8.80;;;17.30;99.90;;;;;;4960024;28;20055;-66
2022/09/23 11:53:03;;;;;;;12.43;8.50;;;17.20;99.90;;;;;;4959894;28;20051;-65
2022/09/23 11:55:35;;;;;;;13.30;7.28;;;17.10;99.90;;;;;;4977157;28;20061;-65
2022/09/23 11:58:09;;;;;;;12.38;8.57;;;17.10;99.90;;;;;;4960091;28;20121;-65
2022/09/23 12:00:43;;;;;;;10.43;8.30;;;17.10;99.90;;;;;;4976089;28;20109;-66
2022/09/23 12:03:17;;;;;;;11.90;8.55;;;17.20;99.90;;;;;;4977121;28;20061;-66
2022/09/23 12:05:48;;;;;;;11.43;8.43;;;17.20;99.90;;;;;;4959779;28;20186;-66
2022/09/23 12:08:25;;;;;;;12.07;8.68;;;17.30;99.90;;;;;;4958798;28;20058;-66
2022/09/23 12:10:58;;;;;;;10.05;7.95;;;17.30;99.90;;;;;;4977009;28;20130;-65
2022/09/23 12:13:36;;;;;;;12.02;8.52;;;17.30;99.90;;;;;;4959398;28;20402;-65
2022/09/23 12:16:26;;;;;;;11.73;8.52;;;17.20;99.90;;;;;;4958798;28;20562;-65
2022/09/23 12:19:05;;;;;;;10.98;8.80;;;17.30;99.90;;;;;;4976636;28;20051;-65
2022/09/23 12:21:59;;;;;;;11.35;9.23;;;17.30;99.90;;;;;;4975861;28;20051;-66
2022/09/23 12:24:50;;;;;;;12.77;9.13;;;17.20;99.90;;;;;;4959180;28;20065;-65
2022/09/23 12:27:27;;;;;;;12.10;9.52;;;17.20;99.90;;;;;;4976564;28;20063;-66
2022/09/23 12:29:59;;;;;;;11.68;9.05;;;17.30;99.90;;;;;;4958573;28;20491;-65
2022/09/23 12:32:27;;;;;;;12.15;8.93;;;17.30;99.90;;;;;;4976332;28;20450;-65
2022/09/23 12:34:54;;;;;;;13.23;8.65;;;17.40;99.90;;;;;;4976309;28;20125;-65
2022/09/23 12:37:29;;;;;;;16.75;8.98;;;17.50;99.90;;;;;;4958322;28;20491;-65
2022/09/23 12:40:01;;;;;;;12.13;8.95;;;17.50;99.90;;;;;;4976230;28;20474;-66
2022/09/23 12:42:29;;;;;;;20.88;9.70;;;17.50;99.90;;;;;;4958049;28;20053;-65
2022/09/23 12:45:18;;;;;;;13.40;9.73;;;17.60;99.90;;;;;;4959004;28;20062;-64
2022/09/23 12:47:45;;;;;;;16.70;9.93;;;17.70;99.90;;;;;;4975559;28;20396;-66
2022/09/23 12:50:50;;;;;;;12.45;9.20;;;17.70;99.90;;;;;;4975089;28;20561;-65
2022/09/23 12:53:54;;;;;;;11.65;9.07;;;17.80;99.90;;;;;;4976034;28;20058;-66
2022/09/23 12:56:26;;;;;;;15.63;9.55;;;17.80;99.90;;;;;;4951256;28;20146;-66
2022/09/23 12:59:02;;;;;;;14.82;8.82;;;17.80;99.90;;;;;;4958880;28;20100;-67
2022/09/23 13:01:36;;;;;;;13.85;9.57;;;17.80;99.90;;;;;;4975681;28;20561;-66
2022/09/23 13:06:56;;;;;;;11.73;8.85;;;17.70;99.90;;;;;;4958380;28;20078;-66
2022/09/23 13:09:28;;;;;;;14.55;9.43;;;17.70;99.90;;;;;;4957561;28;20061;-66
2022/09/23 13:11:59;;;;;;;11.75;9.40;;;17.70;99.90;;;;;;4956411;28;20519;-66